Boca Raton, FL

6:46 PM EST on March 03, 2015 (GMT -0500)
Terra Tranquila | Change Station
CLOSE
Current Station
Personal Weather Station
Location: Boca Raton, FL
Elevation: 30 ft
Nearby Weather Stations

Elev 30 ft 26.34 °N, 80.15 °W | Updated 1 minute ago

Partly Cloudy
Partly Cloudy
74.8 °F
Feels Like 76 °F
N
4.2
Wind Variable Wind from SSW
Gusts 6.3 mph

Today
High -- | Low -- °F
--% Chance of Precip.
Yesterday
High -- | Low -- °F
Precip. -- in
6:42 AM 6:23 PM
Waxing Gibbous, 97% visible
Pressure 30.14 in
Visibility 10.0 miles
Clouds Few 2400 ft
Scattered Clouds 3100 ft
Heat Index 76 °F
Dew Point 64 °F
Humidity 70%
Rainfall 0.00 in
Snow Depth Not available.
UV 0 out of 12
Pollen 10.60 out of 12
Air Quality Not available.
Flu Activity Not available.
SPECI KPMP 032321Z 11010KT 10SM FEW024 SCT031 24/18 A3014 RMK AO2 T02440183

More Conditions Fewer Conditions

Pressure 30.14 in
Visibility 10.0 miles
Clouds Few 2400 ft
Scattered Clouds 3100 ft
Heat Index 76 °F
Dew Point 64 °F
Humidity 70%
Rainfall 0.00 in
Snow Depth Not available.
UV 0 out of 12
Pollen 10.60 out of 12
Air Quality Not available.
Flu Activity Not available.
SPECI KPMP 032321Z 11010KT 10SM FEW024 SCT031 24/18 A3014 RMK AO2 T02440183

More Conditions Fewer Conditions

10-Day Weather Forecast

Almanac

Astronomy

Mar. 03, 2015 Rise Set
Actual Time
Civil Twilight
Nautical Twilight
Astronomical Twilight
Moon
Length of Visible Light
Length of Day
Tomorrow will be .
, % of the Moon is Illuminated

Today's Extremes

State Highs State Lows

Community

WunderPhotos

Upload Photos

1,802,305 photos uploaded!

WunderBlogs® & News

Nearby

Air Quality

  Air Quality AQ Index Pollutant
Not available.

Snow Depth

Station Depth Elevation

Earthquake Activity

City Distance Mag. Time & Date
Minimum magnitude displayed is 2.5.

Coastal Water Temperatures

Place Temperature

Nearby Weather Stations